createdAt,value
2019-01-16T00:01:21.077Z,98916.94
2019-01-16T00:04:00.708Z,98910.96
2019-01-16T00:07:02.226Z,98907.91
2019-01-16T00:09:50.480Z,98913.37
2019-01-16T00:12:29.370Z,98916.78
2019-01-16T00:15:31.186Z,98915.11
2019-01-16T00:18:21.424Z,98910.96
2019-01-16T00:21:10.864Z,98904.92
2019-01-16T00:24:00.103Z,98903.97
2019-01-16T00:26:47.497Z,98898.06
2019-01-16T00:29:54.857Z,98888.09
2019-01-16T00:32:43.034Z,98888.52
2019-01-16T00:35:31.353Z,98879.00
2019-01-16T00:38:19.491Z,98875.98
2019-01-16T00:41:07.609Z,98874.82
2019-01-16T00:43:56.891Z,98873.45
2019-01-16T00:46:56.409Z,98874.18
2019-01-16T00:49:48.440Z,98876.22
2019-01-16T00:52:37.604Z,98869.81
2019-01-16T00:55:34.272Z,98868.69
2019-01-16T00:58:22.930Z,98864.88
2019-01-16T01:01:15.169Z,98866.37
2019-01-16T01:04:19.682Z,98862.66
2019-01-16T01:07:08.892Z,98872.63
2019-01-16T01:10:16.263Z,98867.48
2019-01-16T01:13:04.106Z,98863.57
2019-01-16T01:15:53.286Z,98858.42
2019-01-16T01:19:00.960Z,98862.08
2019-01-16T01:21:42.829Z,98861.83
2019-01-16T01:24:37.561Z,98863.30
2019-01-16T01:27:23.412Z,98867.74
2019-01-16T01:30:24.970Z,98867.01
2019-01-16T01:33:29.675Z,98861.14
2019-01-16T01:36:17.477Z,98860.78
2019-01-16T01:38:55.775Z,98852.86
2019-01-16T01:41:57.091Z,98858.64
2019-01-16T01:44:46.307Z,98857.23
2019-01-16T01:47:35.578Z,98850.75
2019-01-16T01:50:26.313Z,98847.39
2019-01-16T01:53:18.602Z,98838.80
2019-01-16T01:56:06.437Z,98845.38
2019-01-16T01:59:01.758Z,98839.22
2019-01-16T02:01:56.851Z,98835.54
2019-01-16T02:04:46.093Z,98832.41
2019-01-16T02:07:35.332Z,98834.36
2019-01-16T02:10:25.071Z,98836.49
2019-01-16T02:13:13.218Z,98829.88
2019-01-16T02:16:02.300Z,98830.31
2019-01-16T02:19:09.620Z,98820.34
2019-01-16T02:22:05.449Z,98821.63
2019-01-16T02:24:53.417Z,98822.02
2019-01-16T02:27:43.395Z,98820.59
2019-01-16T02:30:20.489Z,98810.55
2019-01-16T02:33:21.945Z,98807.60
2019-01-16T02:36:14.911Z,98800.31
2019-01-16T02:39:08.684Z,98790.31
2019-01-16T02:41:54.235Z,98788.22
2019-01-16T02:44:35.445Z,98792.20
2019-01-16T02:47:23.178Z,98787.20
2019-01-16T02:50:11.355Z,98781.70
2019-01-16T02:52:58.510Z,98777.86
2019-01-16T02:55:46.334Z,98773.86
2019-01-16T02:58:35.647Z,98766.73
2019-01-16T03:01:18.565Z,98768.13
2019-01-16T03:04:06.961Z,98758.89
2019-01-16T03:07:01.950Z,98758.13
2019-01-16T03:09:54.037Z,98758.13
2019-01-16T03:12:33.784Z,98768.28
2019-01-16T03:15:21.125Z,98760.34
2019-01-16T03:18:00.234Z,98755.39
2019-01-16T03:20:55.576Z,98754.97
2019-01-16T03:23:54.012Z,98756.64
2019-01-16T03:26:55.658Z,98737.88
2019-01-16T03:29:36.364Z,98737.88
2019-01-16T03:32:26.094Z,98739.49
2019-01-16T03:35:02.116Z,98733.83
2019-01-16T03:37:47.367Z,98726.33
2019-01-16T03:40:39.474Z,98726.82
2019-01-16T03:43:34.804Z,98727.06
2019-01-16T03:46:21.490Z,98716.70
2019-01-16T03:49:13.885Z,98714.30
2019-01-16T03:51:53.426Z,98711.71
2019-01-16T03:54:48.582Z,98719.54
2019-01-16T03:57:41.046Z,98704.70
2019-01-16T04:00:44.896Z,98710.67
2019-01-16T04:03:46.551Z,98704.55
2019-01-16T04:06:34.626Z,98695.36
2019-01-16T04:09:25.476Z,98694.81
2019-01-16T04:12:14.705Z,98693.24
2019-01-16T04:15:03.914Z,98681.87
2019-01-16T04:17:55.941Z,98680.95
2019-01-16T04:20:45.177Z,98671.45
2019-01-16T04:23:34.393Z,98673.47
2019-01-16T04:26:23.559Z,98675.70
2019-01-16T04:29:09.017Z,98671.31
2019-01-16T04:31:58.257Z,98666.78
2019-01-16T04:34:56.605Z,98661.64
2019-01-16T04:37:37.582Z,98656.75
2019-01-16T04:40:36.453Z,98655.34
2019-01-16T04:43:31.803Z,98642.65
2019-01-16T04:46:24.189Z,98642.44
2019-01-16T04:49:19.451Z,98641.72
2019-01-16T04:52:14.990Z,98638.00
2019-01-16T04:55:04.231Z,98642.55
2019-01-16T04:57:47.231Z,98622.16
2019-01-16T05:00:35.531Z,98622.55
2019-01-16T05:03:24.699Z,98624.28
2019-01-16T05:06:17.187Z,98615.39
2019-01-16T05:09:06.407Z,98615.00
2019-01-16T05:11:48.054Z,98608.09
2019-01-16T05:14:29.632Z,98616.41
2019-01-16T05:17:11.017Z,98615.39
2019-01-16T05:20:15.403Z,98601.38
2019-01-16T05:23:03.694Z,98592.81
2019-01-16T05:25:53.427Z,98587.91
2019-01-16T05:28:45.540Z,98586.83
2019-01-16T05:31:33.456Z,98583.55
2019-01-16T05:34:37.358Z,98594.98
2019-01-16T05:37:25.463Z,98596.14
2019-01-16T05:40:17.782Z,98594.39
2019-01-16T05:43:10.522Z,98595.78
2019-01-16T05:45:59.728Z,98597.54
2019-01-16T05:48:48.375Z,98596.14
2019-01-16T05:51:26.584Z,98589.27
2019-01-16T05:54:31.087Z,98585.55
2019-01-16T05:57:21.660Z,98588.55
2019-01-16T06:00:07.224Z,98586.97
2019-01-16T06:02:55.358Z,98586.65
2019-01-16T06:05:53.939Z,98585.55
2019-01-16T06:08:49.237Z,98600.44
2019-01-16T06:11:38.424Z,98595.72
2019-01-16T06:14:26.425Z,98591.89
2019-01-16T06:17:24.472Z,98579.23
2019-01-16T06:20:23.898Z,98581.30
2019-01-16T06:23:13.122Z,98571.52
2019-01-16T06:26:05.586Z,98576.05
2019-01-16T06:28:54.847Z,98579.62
2019-01-16T06:31:59.091Z,98576.73
2019-01-16T06:34:35.943Z,98581.19
2019-01-16T06:37:32.962Z,98589.25
2019-01-16T06:40:10.689Z,98587.23
2019-01-16T06:42:48.971Z,98595.11
2019-01-16T06:45:26.493Z,98585.22
2019-01-16T06:48:15.636Z,98590.67
2019-01-16T06:50:57.752Z,98596.48
2019-01-16T06:53:53.242Z,98600.07
2019-01-16T06:56:45.506Z,98612.88
2019-01-16T06:59:33.300Z,98608.05
2019-01-16T07:02:31.603Z,98610.56
2019-01-16T07:05:19.699Z,98597.39
2019-01-16T07:08:07.717Z,98589.58
2019-01-16T07:10:55.658Z,98588.20
2019-01-16T07:13:53.763Z,98583.13
2019-01-16T07:16:58.205Z,98571.05
2019-01-16T07:19:59.551Z,98574.25
2019-01-16T07:22:49.120Z,98577.99
2019-01-16T07:25:38.350Z,98573.55
2019-01-16T07:28:20.411Z,98581.50
2019-01-16T07:31:08.797Z,98583.43
2019-01-16T07:33:56.325Z,98586.63
2019-01-16T07:36:46.073Z,98583.43
2019-01-16T07:39:29.198Z,98593.55
2019-01-16T07:42:21.359Z,98592.78
2019-01-16T07:45:19.600Z,98600.77
2019-01-16T07:48:11.543Z,98597.06
2019-01-16T07:50:59.476Z,98596.95
2019-01-16T07:53:47.621Z,98593.40
2019-01-16T07:56:37.984Z,98590.39
2019-01-16T07:59:30.343Z,98597.95
2019-01-16T08:02:25.774Z,98594.94
2019-01-16T08:05:21.674Z,98591.59
2019-01-16T08:08:04.754Z,98589.92
2019-01-16T08:10:48.642Z,98588.38
2019-01-16T08:13:34.495Z,98588.45
2019-01-16T08:16:26.520Z,98592.27
2019-01-16T08:19:14.455Z,98585.39
2019-01-16T08:22:02.559Z,98582.60
2019-01-16T08:25:05.589Z,98584.41
2019-01-16T08:28:04.981Z,98587.63
2019-01-16T08:30:50.469Z,98585.45
2019-01-16T08:33:42.813Z,98579.27
2019-01-16T08:36:32.071Z,98579.19
2019-01-16T08:39:33.524Z,98585.75
2019-01-16T08:42:42.396Z,98584.09
2019-01-16T08:45:31.705Z,98594.66
2019-01-16T08:48:26.635Z,98592.06
2019-01-16T08:51:14.439Z,98588.80
2019-01-16T08:54:02.426Z,98593.82
2019-01-16T08:59:45.085Z,98590.53
2019-01-16T09:02:43.447Z,98586.36
2019-01-16T09:05:32.313Z,98577.93
2019-01-16T09:08:36.834Z,98575.23
2019-01-16T09:11:25.739Z,98570.70
2019-01-16T09:14:15.029Z,98572.41
2019-01-16T09:17:13.068Z,98574.20
2019-01-16T09:20:08.431Z,98578.38
2019-01-16T09:23:00.837Z,98576.88
2019-01-16T09:25:53.068Z,98572.55
2019-01-16T09:28:35.924Z,98550.98
2019-01-16T09:31:29.977Z,98548.98
2019-01-16T09:34:23.988Z,98549.08
2019-01-16T09:37:13.146Z,98540.72
2019-01-16T09:40:16.566Z,98534.67
2019-01-16T09:43:11.865Z,98529.46
2019-01-16T09:46:13.471Z,98521.84
2019-01-16T09:49:05.401Z,98519.55
2019-01-16T09:52:06.960Z,98512.19
2019-01-16T09:55:05.443Z,98508.97
2019-01-16T09:58:01.532Z,98498.94
2019-01-16T10:00:53.827Z,98499.02
2019-01-16T10:03:46.125Z,98488.10
2019-01-16T10:06:34.369Z,98487.16
2019-01-16T10:09:25.780Z,98486.59
2019-01-16T10:12:10.401Z,98482.26
2019-01-16T10:14:59.648Z,98479.07
2019-01-16T10:18:00.958Z,98475.09
2019-01-16T10:20:55.423Z,98472.02
2019-01-16T10:23:48.670Z,98469.45
2019-01-16T10:26:38.010Z,98466.24
2019-01-16T10:29:27.252Z,98455.27
2019-01-16T10:32:15.294Z,98447.65
2019-01-16T10:35:07.816Z,98451.75
2019-01-16T10:38:03.379Z,98442.73
2019-01-16T10:40:52.110Z,98439.91
2019-01-16T10:43:30.242Z,98429.11
2019-01-16T10:46:34.855Z,98425.98
2019-01-16T10:49:15.948Z,98413.18
2019-01-16T10:52:04.103Z,98412.03
2019-01-16T10:54:52.594Z,98410.18
2019-01-16T10:57:51.172Z,98409.73
2019-01-16T11:00:40.718Z,98402.30
2019-01-16T11:03:48.084Z,98389.98
2019-01-16T11:06:36.001Z,98389.22
2019-01-16T11:09:28.714Z,98388.20
2019-01-16T11:12:27.043Z,98377.25
2019-01-16T11:15:09.097Z,98369.52
2019-01-16T11:17:58.806Z,98360.14
2019-01-16T11:20:43.159Z,98367.27
2019-01-16T11:23:31.170Z,98354.48
2019-01-16T11:26:13.002Z,98348.19
2019-01-16T11:29:08.242Z,98343.92
2019-01-16T11:31:56.118Z,98345.02
2019-01-16T11:34:44.116Z,98340.06
2019-01-16T11:37:33.238Z,98343.02
2019-01-16T11:40:17.064Z,98331.85
2019-01-16T11:42:56.155Z,98333.45
2019-01-16T11:46:03.202Z,98329.91
2019-01-16T11:48:52.638Z,98323.45
2019-01-16T11:51:38.065Z,98316.52
2019-01-16T11:54:27.208Z,98312.70
2019-01-16T11:57:16.527Z,98305.89
2019-01-16T12:00:17.755Z,98298.53
2019-01-16T12:02:56.252Z,98297.99
2019-01-16T12:05:41.160Z,98290.71
2019-01-16T12:08:46.105Z,98283.48
2019-01-16T12:11:30.927Z,98283.47
2019-01-16T12:14:38.564Z,98277.63
2019-01-16T12:17:43.085Z,98269.65
2019-01-16T12:20:38.587Z,98260.37
2019-01-16T12:23:26.460Z,98261.95
2019-01-16T12:26:22.054Z,98249.23
2019-01-16T12:29:20.188Z,98248.97
2019-01-16T12:32:09.389Z,98245.79
2019-01-16T12:34:58.556Z,98246.89
2019-01-16T12:37:38.944Z,98242.27
2019-01-16T12:40:26.828Z,98236.19
2019-01-16T12:43:16.038Z,98238.80
2019-01-16T12:46:05.249Z,98226.01
2019-01-16T12:48:53.648Z,98221.11
2019-01-16T12:51:48.622Z,98216.02
2019-01-16T12:54:56.435Z,98214.94
2019-01-16T12:57:58.080Z,98209.91
2019-01-16T13:00:43.427Z,98203.54
2019-01-16T13:03:27.231Z,98194.60
2019-01-16T13:06:28.805Z,98198.17
2019-01-16T13:09:10.444Z,98196.95
2019-01-16T13:12:02.446Z,98192.68
2019-01-16T13:14:51.638Z,98189.94
2019-01-16T13:17:40.831Z,98177.91
2019-01-16T13:20:22.983Z,98178.41
2019-01-16T13:23:24.568Z,98175.09
2019-01-16T13:26:29.208Z,98171.07
2019-01-16T13:29:23.627Z,98172.88
2019-01-16T13:32:11.753Z,98177.10
2019-01-16T13:35:01.148Z,98171.11
2019-01-16T13:38:03.055Z,98165.39
2019-01-16T13:40:48.127Z,98168.84
2019-01-16T13:43:29.239Z,98169.34
2019-01-16T13:46:18.428Z,98168.42
2019-01-16T13:49:03.894Z,98169.80
2019-01-16T13:51:49.126Z,98168.89
2019-01-16T13:54:47.645Z,98170.62
2019-01-16T13:57:35.733Z,98161.64
2019-01-16T14:00:26.697Z,98162.64
2019-01-16T14:03:18.977Z,98157.64
2019-01-16T14:06:06.887Z,98156.40
2019-01-16T14:08:55.066Z,98156.84
2019-01-16T14:11:43.208Z,98152.75
2019-01-16T14:14:31.400Z,98147.75
2019-01-16T14:17:21.029Z,98145.95
2019-01-16T14:20:19.540Z,98138.70
2019-01-16T14:23:13.356Z,98122.02
2019-01-16T14:26:10.370Z,98138.53
2019-01-16T14:28:59.776Z,98123.41
2019-01-16T14:31:47.645Z,98113.41
2019-01-16T14:34:41.459Z,98122.58
2019-01-16T14:37:37.886Z,98119.62
2019-01-16T14:40:16.978Z,98112.58
2019-01-16T14:43:17.520Z,98105.33
2019-01-16T14:46:13.741Z,98112.31
2019-01-16T14:48:58.087Z,98114.20
2019-01-16T14:51:59.751Z,98109.28
2019-01-16T14:54:54.199Z,98108.25
2019-01-16T14:57:52.684Z,98102.83
2019-01-16T15:00:47.241Z,98104.45
2019-01-16T15:03:35.698Z,98103.81
2019-01-16T15:06:24.418Z,98094.51
2019-01-16T15:09:11.592Z,98093.87
2019-01-16T15:12:14.012Z,98099.30
2019-01-16T15:15:15.389Z,98097.47
2019-01-16T15:18:07.648Z,98089.95
2019-01-16T15:21:03.162Z,98089.98
2019-01-16T15:23:46.159Z,98086.59
2019-01-16T15:26:47.886Z,98085.95
2019-01-16T15:29:36.963Z,98081.54
2019-01-16T15:32:32.609Z,98082.20
2019-01-16T15:35:39.684Z,98082.94
2019-01-16T15:38:20.732Z,98078.43
2019-01-16T15:41:08.242Z,98081.17
2019-01-16T15:43:51.179Z,98072.37
2019-01-16T15:46:43.116Z,98083.72
2019-01-16T15:49:39.599Z,98075.59
2019-01-16T15:52:19.864Z,98073.14
2019-01-16T15:55:07.976Z,98068.51
2019-01-16T15:57:52.199Z,98070.09
2019-01-16T16:00:41.479Z,98059.50
2019-01-16T16:03:29.515Z,98065.31
2019-01-16T16:06:24.862Z,98063.66
2019-01-16T16:09:13.080Z,98066.09
2019-01-16T16:12:01.491Z,98062.23
2019-01-16T16:14:41.405Z,98064.20
2019-01-16T16:17:29.410Z,98069.53
2019-01-16T16:20:25.027Z,98066.63
2019-01-16T16:23:14.319Z,98066.28
2019-01-16T16:26:00.737Z,98066.12
2019-01-16T16:28:53.295Z,98057.17
2019-01-16T16:31:41.494Z,98063.41
2019-01-16T16:34:29.402Z,98062.36
2019-01-16T16:37:30.780Z,98064.14
2019-01-16T16:40:22.806Z,98066.33
2019-01-16T16:43:21.137Z,98062.23
2019-01-16T16:46:19.001Z,98064.72
2019-01-16T16:49:20.795Z,98063.39
2019-01-16T16:52:12.863Z,98063.57
2019-01-16T16:54:58.989Z,98060.80
2019-01-16T16:57:46.825Z,98049.55
2019-01-16T17:00:37.268Z,98054.53
2019-01-16T17:03:25.148Z,98044.42
2019-01-16T17:06:03.083Z,98044.17
2019-01-16T17:08:55.450Z,98053.02
2019-01-16T17:12:03.057Z,98047.55
2019-01-16T17:14:55.316Z,98041.33
2019-01-16T17:17:44.612Z,98043.01
2019-01-16T17:20:32.562Z,98041.22
2019-01-16T17:23:24.797Z,98048.06
2019-01-16T17:26:16.424Z,98049.83
2019-01-16T17:29:04.396Z,98038.39
2019-01-16T17:32:02.687Z,98045.16
2019-01-16T17:35:01.181Z,98043.80
2019-01-16T17:37:49.436Z,98045.30
2019-01-16T17:40:45.460Z,98046.80
2019-01-16T17:43:33.426Z,98036.70
2019-01-16T17:46:38.361Z,98036.70
2019-01-16T17:49:23.356Z,98033.64
2019-01-16T17:52:11.224Z,98028.84
2019-01-16T17:55:00.452Z,98030.11
2019-01-16T17:57:48.542Z,98023.71
2019-01-16T18:00:56.305Z,98025.75
2019-01-16T18:03:44.830Z,98020.65
2019-01-16T18:06:26.719Z,98022.25
2019-01-16T18:09:19.996Z,98022.45
2019-01-16T18:12:27.365Z,98021.30
2019-01-16T18:15:31.953Z,98023.34
2019-01-16T18:18:29.857Z,98017.09
2019-01-16T18:21:13.543Z,98015.48
2019-01-16T18:24:02.770Z,98020.41
2019-01-16T18:26:52.353Z,98016.08
2019-01-16T18:29:30.914Z,98019.33
2019-01-16T18:32:19.139Z,98007.17
2019-01-16T18:35:26.985Z,98008.72
2019-01-16T18:38:25.031Z,98009.33
2019-01-16T18:41:19.838Z,98005.19
2019-01-16T18:44:03.692Z,98002.31
2019-01-16T18:46:52.903Z,97996.67
2019-01-16T18:49:39.656Z,97996.67
2019-01-16T18:52:42.361Z,98001.48
2019-01-16T18:55:30.218Z,97999.91
2019-01-16T18:58:17.179Z,97996.69
2019-01-16T19:01:05.640Z,97997.70
2019-01-16T19:03:48.349Z,97996.03
2019-01-16T19:06:36.496Z,97984.58
2019-01-16T19:09:40.590Z,97990.94
2019-01-16T19:12:28.576Z,97987.28
2019-01-16T19:15:21.875Z,97971.63
2019-01-16T19:17:59.381Z,97974.28
2019-01-16T19:21:02.941Z,97972.22
2019-01-16T19:23:49.519Z,97971.98
2019-01-16T19:26:44.920Z,97969.48
2019-01-16T19:29:46.113Z,97972.05
2019-01-16T19:32:44.471Z,97973.27
2019-01-16T19:35:39.713Z,97959.77
2019-01-16T19:38:25.837Z,97969.09
2019-01-16T19:41:16.802Z,97955.55
2019-01-16T19:44:24.490Z,97959.66
2019-01-16T19:47:29.272Z,97954.03
2019-01-16T19:50:13.858Z,97954.20
2019-01-16T19:52:52.708Z,97951.86
2019-01-16T19:55:57.731Z,97956.35
2019-01-16T19:58:45.966Z,97962.31
2019-01-16T20:01:33.849Z,97967.96
2019-01-16T20:04:29.083Z,97965.35
2019-01-16T20:07:21.128Z,97963.95
2019-01-16T20:10:19.622Z,97966.57
2019-01-16T20:13:12.155Z,97970.78
2019-01-16T20:15:51.980Z,97962.80
2019-01-16T20:18:40.695Z,97976.25
2019-01-16T20:21:22.673Z,97967.37
2019-01-16T20:24:09.694Z,97976.04
2019-01-16T20:27:03.248Z,97971.00
2019-01-16T20:29:48.018Z,97977.59
2019-01-16T20:32:46.400Z,97978.03
2019-01-16T20:35:48.894Z,97977.79
2019-01-16T20:38:36.867Z,97983.05
2019-01-16T20:41:24.873Z,97989.00
2019-01-16T20:44:14.079Z,97990.56
2019-01-16T20:47:02.529Z,97985.90
2019-01-16T20:49:54.838Z,97985.30
2019-01-16T20:52:33.180Z,97986.99
2019-01-16T20:55:22.373Z,97979.32
2019-01-16T20:58:11.962Z,97985.27
2019-01-16T21:00:59.716Z,97988.64
2019-01-16T21:03:48.310Z,97991.52
2019-01-16T21:06:37.875Z,97986.89
2019-01-16T21:09:34.136Z,97988.43
2019-01-16T21:12:22.589Z,97997.03
2019-01-16T21:15:08.506Z,97987.52
2019-01-16T21:18:04.167Z,97996.57
2019-01-16T21:20:52.788Z,98001.39
2019-01-16T21:23:40.748Z,98004.83
2019-01-16T21:26:45.359Z,98006.77
2019-01-16T21:29:43.034Z,98005.30
2019-01-16T21:32:22.069Z,98005.67
2019-01-16T21:35:04.051Z,98000.56
2019-01-16T21:37:53.749Z,98009.70
2019-01-16T21:40:41.712Z,98010.65
2019-01-16T21:43:28.719Z,98017.91
2019-01-16T21:46:33.136Z,98017.91
2019-01-16T21:49:18.599Z,98027.77
2019-01-16T21:52:00.167Z,98027.33
2019-01-16T21:54:51.931Z,98025.05
2019-01-16T21:57:35.160Z,98033.58
2019-01-16T22:00:22.957Z,98032.03
2019-01-16T22:03:18.601Z,98040.27
2019-01-16T22:06:00.887Z,98030.42
2019-01-16T22:08:49.398Z,98039.67
2019-01-16T22:11:37.795Z,98036.06
2019-01-16T22:14:25.557Z,98035.47
2019-01-16T22:17:32.980Z,98038.09
2019-01-16T22:20:21.087Z,98037.02
2019-01-16T22:23:19.651Z,98045.42
2019-01-16T22:26:11.855Z,98043.27
2019-01-16T22:28:53.478Z,98041.36
2019-01-16T22:31:46.760Z,98041.80
2019-01-16T22:34:41.877Z,98037.73
2019-01-16T22:37:34.294Z,98038.20
2019-01-16T22:40:35.011Z,98041.59
2019-01-16T22:43:27.781Z,98044.95
2019-01-16T22:46:05.734Z,98048.18
2019-01-16T22:48:58.100Z,98056.44
2019-01-16T22:51:54.131Z,98057.55
2019-01-16T22:54:46.699Z,98063.05
2019-01-16T22:57:54.118Z,98058.09
2019-01-16T23:01:00.179Z,98053.62
2019-01-16T23:03:45.945Z,98045.55
2019-01-16T23:06:33.930Z,98049.56
2019-01-16T23:09:25.004Z,98051.64
2019-01-16T23:12:07.549Z,98048.74
2019-01-16T23:14:46.638Z,98047.55
2019-01-16T23:17:41.624Z,98053.83
2019-01-16T23:20:30.868Z,98046.53
2019-01-16T23:23:20.069Z,98049.50
2019-01-16T23:26:09.281Z,98056.34
2019-01-16T23:29:07.901Z,98056.55
2019-01-16T23:32:06.386Z,98064.76
2019-01-16T23:34:55.169Z,98060.59
2019-01-16T23:37:50.410Z,98061.40
2019-01-16T23:40:45.861Z,98067.50
2019-01-16T23:43:35.424Z,98061.00
2019-01-16T23:46:24.381Z,98066.80
2019-01-16T23:49:20.721Z,98060.13
2019-01-16T23:52:19.390Z,98062.07
2019-01-16T23:55:07.531Z,98065.66
2019-01-16T23:57:48.851Z,98060.28
